sensor_id;sensor_type;location;lat;lon;timestamp;P1;durP1;ratioP1;P2;durP2;ratioP2
72601;SDS011;60644;55.858;37.390;2023-04-24T00:01:39;16.07;;;4.30;;
72601;SDS011;60644;55.858;37.390;2023-04-24T00:04:05;14.15;;;5.20;;
72601;SDS011;60644;55.858;37.390;2023-04-24T00:06:32;11.30;;;4.30;;
72601;SDS011;60644;55.858;37.390;2023-04-24T00:09:02;12.43;;;4.43;;
72601;SDS011;60644;55.858;37.390;2023-04-24T00:11:28;12.27;;;4.82;;
72601;SDS011;60644;55.858;37.390;2023-04-24T00:13:54;13.82;;;5.60;;
72601;SDS011;60644;55.858;37.390;2023-04-24T00:16:20;16.10;;;4.93;;
72601;SDS011;60644;55.858;37.390;2023-04-24T00:18:46;14.85;;;5.25;;
72601;SDS011;60644;55.858;37.390;2023-04-24T00:21:13;10.18;;;4.85;;
72601;SDS011;60644;55.858;37.390;2023-04-24T00:23:39;11.13;;;4.90;;
72601;SDS011;60644;55.858;37.390;2023-04-24T00:26:05;11.30;;;5.35;;
72601;SDS011;60644;55.858;37.390;2023-04-24T00:28:30;11.93;;;4.93;;
72601;SDS011;60644;55.858;37.390;2023-04-24T00:30:56;11.52;;;4.72;;
72601;SDS011;60644;55.858;37.390;2023-04-24T00:33:22;10.23;;;5.00;;
72601;SDS011;60644;55.858;37.390;2023-04-24T00:35:47;11.75;;;4.57;;
72601;SDS011;60644;55.858;37.390;2023-04-24T00:38:13;10.43;;;4.77;;
72601;SDS011;60644;55.858;37.390;2023-04-24T00:40:38;12.23;;;5.07;;
72601;SDS011;60644;55.858;37.390;2023-04-24T00:43:04;13.45;;;5.35;;
72601;SDS011;60644;55.858;37.390;2023-04-24T00:45:30;12.70;;;5.03;;
72601;SDS011;60644;55.858;37.390;2023-04-24T00:47:56;10.00;;;4.68;;
72601;SDS011;60644;55.858;37.390;2023-04-24T00:50:23;12.20;;;4.75;;
72601;SDS011;60644;55.858;37.390;2023-04-24T00:52:49;12.25;;;4.75;;
72601;SDS011;60644;55.858;37.390;2023-04-24T00:55:16;9.73;;;4.60;;
72601;SDS011;60644;55.858;37.390;2023-04-24T00:57:43;12.87;;;5.03;;
72601;SDS011;60644;55.858;37.390;2023-04-24T01:00:09;11.23;;;5.43;;
72601;SDS011;60644;55.858;37.390;2023-04-24T01:02:36;12.20;;;5.40;;
72601;SDS011;60644;55.858;37.390;2023-04-24T01:05:06;11.15;;;5.70;;
72601;SDS011;60644;55.858;37.390;2023-04-24T01:07:31;13.32;;;6.00;;
72601;SDS011;60644;55.858;37.390;2023-04-24T01:09:57;14.53;;;5.93;;
72601;SDS011;60644;55.858;37.390;2023-04-24T01:12:24;20.02;;;5.32;;
72601;SDS011;60644;55.858;37.390;2023-04-24T01:14:49;14.17;;;7.60;;
72601;SDS011;60644;55.858;37.390;2023-04-24T01:17:15;14.63;;;6.72;;
72601;SDS011;60644;55.858;37.390;2023-04-24T01:19:41;15.70;;;6.40;;
72601;SDS011;60644;55.858;37.390;2023-04-24T01:22:10;14.50;;;6.33;;
72601;SDS011;60644;55.858;37.390;2023-04-24T01:24:37;16.25;;;6.43;;
72601;SDS011;60644;55.858;37.390;2023-04-24T01:27:04;14.20;;;5.90;;
72601;SDS011;60644;55.858;37.390;2023-04-24T01:29:29;13.53;;;5.70;;
72601;SDS011;60644;55.858;37.390;2023-04-24T01:31:55;13.05;;;5.32;;
72601;SDS011;60644;55.858;37.390;2023-04-24T01:34:21;13.03;;;5.43;;
72601;SDS011;60644;55.858;37.390;2023-04-24T01:36:46;14.60;;;5.80;;
72601;SDS011;60644;55.858;37.390;2023-04-24T01:39:13;13.25;;;5.85;;
72601;SDS011;60644;55.858;37.390;2023-04-24T01:41:39;15.27;;;5.67;;
72601;SDS011;60644;55.858;37.390;2023-04-24T01:44:04;11.30;;;5.45;;
72601;SDS011;60644;55.858;37.390;2023-04-24T01:46:30;12.27;;;5.23;;
72601;SDS011;60644;55.858;37.390;2023-04-24T01:48:57;11.95;;;6.00;;
72601;SDS011;60644;55.858;37.390;2023-04-24T01:51:24;14.13;;;6.35;;
72601;SDS011;60644;55.858;37.390;2023-04-24T01:53:49;13.27;;;6.27;;
72601;SDS011;60644;55.858;37.390;2023-04-24T01:56:15;12.98;;;5.53;;
72601;SDS011;60644;55.858;37.390;2023-04-24T01:58:41;18.17;;;6.30;;
72601;SDS011;60644;55.858;37.390;2023-04-24T02:01:06;16.40;;;6.60;;
72601;SDS011;60644;55.858;37.390;2023-04-24T02:03:32;15.33;;;6.07;;
72601;SDS011;60644;55.858;37.390;2023-04-24T02:05:58;16.58;;;6.35;;
72601;SDS011;60644;55.858;37.390;2023-04-24T02:08:23;9.50;;;5.57;;
72601;SDS011;60644;55.858;37.390;2023-04-24T02:10:49;13.20;;;6.43;;
72601;SDS011;60644;55.858;37.390;2023-04-24T02:13:15;10.07;;;6.13;;
72601;SDS011;60644;55.858;37.390;2023-04-24T02:15:41;15.02;;;6.88;;
72601;SDS011;60644;55.858;37.390;2023-04-24T02:18:06;15.50;;;7.20;;
72601;SDS011;60644;55.858;37.390;2023-04-24T02:20:32;16.73;;;7.30;;
72601;SDS011;60644;55.858;37.390;2023-04-24T02:23:01;16.75;;;7.63;;
72601;SDS011;60644;55.858;37.390;2023-04-24T02:25:26;14.82;;;6.82;;
72601;SDS011;60644;55.858;37.390;2023-04-24T02:27:55;12.90;;;7.00;;
72601;SDS011;60644;55.858;37.390;2023-04-24T02:30:21;17.38;;;7.63;;
72601;SDS011;60644;55.858;37.390;2023-04-24T02:32:46;16.47;;;7.60;;
72601;SDS011;60644;55.858;37.390;2023-04-24T02:35:12;16.00;;;7.35;;
72601;SDS011;60644;55.858;37.390;2023-04-24T02:37:40;12.67;;;6.73;;
72601;SDS011;60644;55.858;37.390;2023-04-24T02:40:06;16.77;;;7.30;;
72601;SDS011;60644;55.858;37.390;2023-04-24T02:42:32;14.13;;;7.78;;
72601;SDS011;60644;55.858;37.390;2023-04-24T02:44:58;21.67;;;8.20;;
72601;SDS011;60644;55.858;37.390;2023-04-24T02:47:24;16.45;;;7.50;;
72601;SDS011;60644;55.858;37.390;2023-04-24T02:49:50;15.47;;;8.23;;
72601;SDS011;60644;55.858;37.390;2023-04-24T02:52:16;16.45;;;7.40;;
72601;SDS011;60644;55.858;37.390;2023-04-24T02:54:42;16.70;;;7.65;;
72601;SDS011;60644;55.858;37.390;2023-04-24T02:57:08;13.18;;;7.30;;
72601;SDS011;60644;55.858;37.390;2023-04-24T02:59:35;18.23;;;6.90;;
72601;SDS011;60644;55.858;37.390;2023-04-24T03:02:00;15.52;;;7.57;;
72601;SDS011;60644;55.858;37.390;2023-04-24T03:04:26;18.23;;;7.33;;
72601;SDS011;60644;55.858;37.390;2023-04-24T03:06:52;17.70;;;7.80;;
72601;SDS011;60644;55.858;37.390;2023-04-24T03:09:21;19.45;;;7.63;;
72601;SDS011;60644;55.858;37.390;2023-04-24T03:11:47;19.30;;;7.83;;
72601;SDS011;60644;55.858;37.390;2023-04-24T03:14:14;14.25;;;6.90;;
72601;SDS011;60644;55.858;37.390;2023-04-24T03:16:39;17.48;;;7.65;;
72601;SDS011;60644;55.858;37.390;2023-04-24T03:19:06;15.20;;;7.47;;
72601;SDS011;60644;55.858;37.390;2023-04-24T03:21:35;16.77;;;7.83;;
72601;SDS011;60644;55.858;37.390;2023-04-24T03:24:09;18.05;;;7.82;;
72601;SDS011;60644;55.858;37.390;2023-04-24T03:26:36;16.58;;;7.60;;
72601;SDS011;60644;55.858;37.390;2023-04-24T03:29:17;14.25;;;7.53;;
72601;SDS011;60644;55.858;37.390;2023-04-24T03:31:43;17.97;;;7.43;;
72601;SDS011;60644;55.858;37.390;2023-04-24T03:34:08;17.00;;;7.30;;
72601;SDS011;60644;55.858;37.390;2023-04-24T03:36:34;14.27;;;7.40;;
72601;SDS011;60644;55.858;37.390;2023-04-24T03:39:01;15.03;;;7.50;;
72601;SDS011;60644;55.858;37.390;2023-04-24T03:41:30;15.25;;;7.30;;
72601;SDS011;60644;55.858;37.390;2023-04-24T03:44:16;15.98;;;7.15;;
72601;SDS011;60644;55.858;37.390;2023-04-24T03:46:42;14.88;;;7.10;;
72601;SDS011;60644;55.858;37.390;2023-04-24T03:49:08;16.70;;;7.77;;
72601;SDS011;60644;55.858;37.390;2023-04-24T03:51:38;14.13;;;7.47;;
72601;SDS011;60644;55.858;37.390;2023-04-24T03:54:29;15.07;;;7.05;;
72601;SDS011;60644;55.858;37.390;2023-04-24T03:56:55;13.93;;;7.43;;
72601;SDS011;60644;55.858;37.390;2023-04-24T03:59:22;14.87;;;7.27;;
72601;SDS011;60644;55.858;37.390;2023-04-24T04:02:04;15.80;;;7.13;;
72601;SDS011;60644;55.858;37.390;2023-04-24T04:04:30;16.20;;;7.82;;
72601;SDS011;60644;55.858;37.390;2023-04-24T04:06:56;18.17;;;7.50;;
72601;SDS011;60644;55.858;37.390;2023-04-24T04:09:23;15.23;;;7.67;;
72601;SDS011;60644;55.858;37.390;2023-04-24T04:11:49;16.52;;;7.78;;
72601;SDS011;60644;55.858;37.390;2023-04-24T04:14:14;17.83;;;8.07;;
72601;SDS011;60644;55.858;37.390;2023-04-24T04:16:44;17.05;;;7.70;;
72601;SDS011;60644;55.858;37.390;2023-04-24T04:19:11;19.23;;;8.13;;
72601;SDS011;60644;55.858;37.390;2023-04-24T04:21:37;17.15;;;8.45;;
72601;SDS011;60644;55.858;37.390;2023-04-24T04:24:11;15.27;;;8.10;;
72601;SDS011;60644;55.858;37.390;2023-04-24T04:26:43;18.60;;;9.75;;
72601;SDS011;60644;55.858;37.390;2023-04-24T04:29:18;14.32;;;8.02;;
72601;SDS011;60644;55.858;37.390;2023-04-24T04:31:44;16.85;;;7.47;;
72601;SDS011;60644;55.858;37.390;2023-04-24T04:34:12;18.92;;;8.35;;
72601;SDS011;60644;55.858;37.390;2023-04-24T04:36:43;16.87;;;8.00;;
72601;SDS011;60644;55.858;37.390;2023-04-24T04:39:35;16.15;;;8.52;;
72601;SDS011;60644;55.858;37.390;2023-04-24T04:42:05;17.67;;;8.43;;
72601;SDS011;60644;55.858;37.390;2023-04-24T04:44:40;16.67;;;8.35;;
72601;SDS011;60644;55.858;37.390;2023-04-24T04:47:08;19.45;;;8.50;;
72601;SDS011;60644;55.858;37.390;2023-04-24T04:49:36;16.60;;;8.33;;
72601;SDS011;60644;55.858;37.390;2023-04-24T04:52:06;16.08;;;7.60;;
72601;SDS011;60644;55.858;37.390;2023-04-24T04:54:32;15.77;;;7.50;;
72601;SDS011;60644;55.858;37.390;2023-04-24T04:56:57;14.02;;;7.20;;
72601;SDS011;60644;55.858;37.390;2023-04-24T04:59:24;15.40;;;7.75;;
72601;SDS011;60644;55.858;37.390;2023-04-24T05:01:56;16.53;;;7.37;;
72601;SDS011;60644;55.858;37.390;2023-04-24T05:04:22;16.17;;;7.90;;
72601;SDS011;60644;55.858;37.390;2023-04-24T05:06:47;15.55;;;7.13;;
72601;SDS011;60644;55.858;37.390;2023-04-24T05:09:15;14.17;;;7.13;;
72601;SDS011;60644;55.858;37.390;2023-04-24T05:11:47;18.00;;;7.68;;
72601;SDS011;60644;55.858;37.390;2023-04-24T05:14:12;16.95;;;7.90;;
72601;SDS011;60644;55.858;37.390;2023-04-24T05:16:39;15.73;;;7.33;;
72601;SDS011;60644;55.858;37.390;2023-04-24T05:19:07;16.60;;;7.50;;
72601;SDS011;60644;55.858;37.390;2023-04-24T05:21:40;18.05;;;7.82;;
72601;SDS011;60644;55.858;37.390;2023-04-24T05:24:07;14.18;;;7.72;;
72601;SDS011;60644;55.858;37.390;2023-04-24T05:26:56;15.73;;;7.50;;
72601;SDS011;60644;55.858;37.390;2023-04-24T05:29:28;14.87;;;7.80;;
72601;SDS011;60644;55.858;37.390;2023-04-24T05:31:56;16.48;;;6.80;;
72601;SDS011;60644;55.858;37.390;2023-04-24T05:34:22;17.05;;;7.63;;
72601;SDS011;60644;55.858;37.390;2023-04-24T05:36:52;18.48;;;7.85;;
72601;SDS011;60644;55.858;37.390;2023-04-24T05:39:19;19.50;;;8.20;;
72601;SDS011;60644;55.858;37.390;2023-04-24T05:41:45;18.07;;;8.10;;
72601;SDS011;60644;55.858;37.390;2023-04-24T05:44:10;15.23;;;7.50;;
72601;SDS011;60644;55.858;37.390;2023-04-24T05:46:36;14.93;;;7.27;;
72601;SDS011;60644;55.858;37.390;2023-04-24T05:49:02;14.18;;;6.50;;
72601;SDS011;60644;55.858;37.390;2023-04-24T05:51:28;16.92;;;7.88;;
72601;SDS011;60644;55.858;37.390;2023-04-24T05:53:54;13.27;;;6.83;;
72601;SDS011;60644;55.858;37.390;2023-04-24T05:56:20;15.60;;;6.85;;
72601;SDS011;60644;55.858;37.390;2023-04-24T05:58:46;14.70;;;7.57;;
72601;SDS011;60644;55.858;37.390;2023-04-24T06:01:12;18.10;;;6.97;;
72601;SDS011;60644;55.858;37.390;2023-04-24T06:03:38;12.55;;;7.18;;
72601;SDS011;60644;55.858;37.390;2023-04-24T06:06:05;13.90;;;7.22;;
72601;SDS011;60644;55.858;37.390;2023-04-24T06:08:32;15.97;;;7.33;;
72601;SDS011;60644;55.858;37.390;2023-04-24T06:10:58;13.40;;;6.97;;
72601;SDS011;60644;55.858;37.390;2023-04-24T06:13:24;13.60;;;7.13;;
72601;SDS011;60644;55.858;37.390;2023-04-24T06:16:13;13.88;;;6.75;;
72601;SDS011;60644;55.858;37.390;2023-04-24T06:18:43;12.57;;;6.18;;
72601;SDS011;60644;55.858;37.390;2023-04-24T06:21:10;15.03;;;6.47;;
72601;SDS011;60644;55.858;37.390;2023-04-24T06:23:36;16.33;;;7.00;;
72601;SDS011;60644;55.858;37.390;2023-04-24T06:26:02;12.03;;;5.50;;
72601;SDS011;60644;55.858;37.390;2023-04-24T06:28:27;13.65;;;5.03;;
72601;SDS011;60644;55.858;37.390;2023-04-24T06:30:53;12.73;;;5.73;;
72601;SDS011;60644;55.858;37.390;2023-04-24T06:33:18;10.13;;;4.87;;
72601;SDS011;60644;55.858;37.390;2023-04-24T06:35:44;12.70;;;5.47;;
72601;SDS011;60644;55.858;37.390;2023-04-24T06:38:10;14.13;;;5.32;;
72601;SDS011;60644;55.858;37.390;2023-04-24T06:40:38;10.30;;;4.60;;
72601;SDS011;60644;55.858;37.390;2023-04-24T06:43:03;13.85;;;4.70;;
72601;SDS011;60644;55.858;37.390;2023-04-24T06:45:29;9.02;;;4.75;;
72601;SDS011;60644;55.858;37.390;2023-04-24T06:47:55;10.00;;;4.37;;
72601;SDS011;60644;55.858;37.390;2023-04-24T06:50:22;10.50;;;4.75;;
72601;SDS011;60644;55.858;37.390;2023-04-24T06:52:47;9.87;;;5.10;;
72601;SDS011;60644;55.858;37.390;2023-04-24T06:55:13;10.17;;;4.93;;
72601;SDS011;60644;55.858;37.390;2023-04-24T06:57:40;9.48;;;4.43;;
72601;SDS011;60644;55.858;37.390;2023-04-24T07:00:06;11.48;;;4.88;;
72601;SDS011;60644;55.858;37.390;2023-04-24T07:02:32;10.67;;;4.50;;
72601;SDS011;60644;55.858;37.390;2023-04-24T07:04:58;10.75;;;5.18;;
72601;SDS011;60644;55.858;37.390;2023-04-24T07:07:24;10.17;;;4.63;;
72601;SDS011;60644;55.858;37.390;2023-04-24T07:09:50;13.25;;;4.63;;
72601;SDS011;60644;55.858;37.390;2023-04-24T07:12:16;12.27;;;4.80;;
72601;SDS011;60644;55.858;37.390;2023-04-24T07:14:42;9.98;;;4.70;;
72601;SDS011;60644;55.858;37.390;2023-04-24T07:17:08;11.47;;;4.90;;
72601;SDS011;60644;55.858;37.390;2023-04-24T07:19:34;9.18;;;4.40;;
72601;SDS011;60644;55.858;37.390;2023-04-24T07:22:01;11.45;;;4.25;;
72601;SDS011;60644;55.858;37.390;2023-04-24T07:24:27;11.98;;;4.93;;
72601;SDS011;60644;55.858;37.390;2023-04-24T07:26:53;10.80;;;4.63;;
72601;SDS011;60644;55.858;37.390;2023-04-24T07:29:19;10.48;;;5.15;;
72601;SDS011;60644;55.858;37.390;2023-04-24T07:31:45;8.82;;;5.18;;
72601;SDS011;60644;55.858;37.390;2023-04-24T07:34:14;9.37;;;4.77;;
72601;SDS011;60644;55.858;37.390;2023-04-24T07:36:40;12.93;;;5.35;;
72601;SDS011;60644;55.858;37.390;2023-04-24T07:39:06;9.70;;;4.53;;
72601;SDS011;60644;55.858;37.390;2023-04-24T07:41:36;9.57;;;4.78;;
72601;SDS011;60644;55.858;37.390;2023-04-24T07:44:01;7.90;;;3.90;;
72601;SDS011;60644;55.858;37.390;2023-04-24T07:46:27;8.18;;;4.13;;
72601;SDS011;60644;55.858;37.390;2023-04-24T07:48:55;8.40;;;4.25;;
72601;SDS011;60644;55.858;37.390;2023-04-24T07:51:21;10.57;;;4.10;;
72601;SDS011;60644;55.858;37.390;2023-04-24T07:53:47;12.77;;;4.20;;
72601;SDS011;60644;55.858;37.390;2023-04-24T07:56:13;10.18;;;4.00;;
72601;SDS011;60644;55.858;37.390;2023-04-24T07:58:39;6.73;;;3.30;;
72601;SDS011;60644;55.858;37.390;2023-04-24T08:01:05;9.47;;;3.30;;
72601;SDS011;60644;55.858;37.390;2023-04-24T08:03:31;9.32;;;3.58;;
72601;SDS011;60644;55.858;37.390;2023-04-24T08:05:56;8.43;;;3.42;;
72601;SDS011;60644;55.858;37.390;2023-04-24T08:08:22;10.90;;;4.27;;
72601;SDS011;60644;55.858;37.390;2023-04-24T08:10:48;6.80;;;3.88;;
72601;SDS011;60644;55.858;37.390;2023-04-24T08:13:14;19.20;;;7.45;;
72601;SDS011;60644;55.858;37.390;2023-04-24T08:15:40;11.83;;;4.33;;
72601;SDS011;60644;55.858;37.390;2023-04-24T08:18:06;10.80;;;4.47;;
72601;SDS011;60644;55.858;37.390;2023-04-24T08:20:32;11.55;;;4.43;;
72601;SDS011;60644;55.858;37.390;2023-04-24T08:23:01;7.87;;;3.70;;
72601;SDS011;60644;55.858;37.390;2023-04-24T08:25:27;10.57;;;3.88;;
72601;SDS011;60644;55.858;37.390;2023-04-24T08:27:53;9.47;;;3.83;;
72601;SDS011;60644;55.858;37.390;2023-04-24T08:30:26;7.45;;;3.60;;
72601;SDS011;60644;55.858;37.390;2023-04-24T08:32:51;8.43;;;3.40;;
72601;SDS011;60644;55.858;37.390;2023-04-24T08:35:17;8.37;;;3.33;;
72601;SDS011;60644;55.858;37.390;2023-04-24T08:37:52;8.00;;;3.08;;
72601;SDS011;60644;55.858;37.390;2023-04-24T08:40:17;5.68;;;3.35;;
72601;SDS011;60644;55.858;37.390;2023-04-24T08:42:44;11.57;;;3.58;;
72601;SDS011;60644;55.858;37.390;2023-04-24T08:45:11;8.57;;;3.38;;
72601;SDS011;60644;55.858;37.390;2023-04-24T08:47:38;7.90;;;3.80;;
72601;SDS011;60644;55.858;37.390;2023-04-24T08:50:03;7.82;;;3.97;;
72601;SDS011;60644;55.858;37.390;2023-04-24T08:52:34;9.15;;;3.67;;
72601;SDS011;60644;55.858;37.390;2023-04-24T08:55:00;7.65;;;3.50;;
72601;SDS011;60644;55.858;37.390;2023-04-24T08:57:31;7.10;;;3.50;;
72601;SDS011;60644;55.858;37.390;2023-04-24T08:59:58;7.43;;;3.63;;
72601;SDS011;60644;55.858;37.390;2023-04-24T09:02:23;7.90;;;3.75;;
72601;SDS011;60644;55.858;37.390;2023-04-24T09:04:50;7.70;;;3.28;;
72601;SDS011;60644;55.858;37.390;2023-04-24T09:07:16;8.05;;;3.72;;
72601;SDS011;60644;55.858;37.390;2023-04-24T09:09:43;9.38;;;5.38;;
72601;SDS011;60644;55.858;37.390;2023-04-24T09:12:09;8.53;;;3.70;;
72601;SDS011;60644;55.858;37.390;2023-04-24T09:14:36;7.15;;;3.67;;
72601;SDS011;60644;55.858;37.390;2023-04-24T09:17:06;8.25;;;3.95;;
72601;SDS011;60644;55.858;37.390;2023-04-24T09:19:31;8.88;;;4.00;;
72601;SDS011;60644;55.858;37.390;2023-04-24T09:21:57;7.77;;;4.07;;
72601;SDS011;60644;55.858;37.390;2023-04-24T09:24:23;7.38;;;3.58;;
72601;SDS011;60644;55.858;37.390;2023-04-24T09:26:49;7.83;;;3.60;;
72601;SDS011;60644;55.858;37.390;2023-04-24T09:29:21;12.68;;;3.72;;
72601;SDS011;60644;55.858;37.390;2023-04-24T09:31:46;9.40;;;3.93;;
72601;SDS011;60644;55.858;37.390;2023-04-24T09:34:12;7.10;;;3.60;;
72601;SDS011;60644;55.858;37.390;2023-04-24T09:36:39;7.45;;;3.63;;
72601;SDS011;60644;55.858;37.390;2023-04-24T09:39:07;8.02;;;3.53;;
72601;SDS011;60644;55.858;37.390;2023-04-24T09:41:33;7.63;;;3.93;;
72601;SDS011;60644;55.858;37.390;2023-04-24T09:46:37;7.32;;;3.50;;
72601;SDS011;60644;55.858;37.390;2023-04-24T09:49:12;7.80;;;3.30;;
72601;SDS011;60644;55.858;37.390;2023-04-24T09:51:38;8.27;;;3.90;;
72601;SDS011;60644;55.858;37.390;2023-04-24T09:54:04;7.50;;;3.95;;
72601;SDS011;60644;55.858;37.390;2023-04-24T09:56:33;6.38;;;3.45;;
72601;SDS011;60644;55.858;37.390;2023-04-24T09:59:06;7.68;;;3.47;;
72601;SDS011;60644;55.858;37.390;2023-04-24T10:01:32;6.80;;;3.20;;
72601;SDS011;60644;55.858;37.390;2023-04-24T10:03:58;6.90;;;3.40;;
72601;SDS011;60644;55.858;37.390;2023-04-24T10:06:29;7.70;;;3.53;;
72601;SDS011;60644;55.858;37.390;2023-04-24T10:08:56;8.07;;;3.47;;
72601;SDS011;60644;55.858;37.390;2023-04-24T10:11:24;7.47;;;3.58;;
72601;SDS011;60644;55.858;37.390;2023-04-24T10:13:51;8.00;;;3.85;;
72601;SDS011;60644;55.858;37.390;2023-04-24T10:16:17;7.22;;;3.58;;
72601;SDS011;60644;55.858;37.390;2023-04-24T10:18:43;8.23;;;3.40;;
72601;SDS011;60644;55.858;37.390;2023-04-24T10:21:11;8.50;;;3.77;;
72601;SDS011;60644;55.858;37.390;2023-04-24T10:23:36;6.97;;;3.67;;
72601;SDS011;60644;55.858;37.390;2023-04-24T10:26:02;7.95;;;4.13;;
72601;SDS011;60644;55.858;37.390;2023-04-24T10:28:29;13.43;;;4.13;;
72601;SDS011;60644;55.858;37.390;2023-04-24T10:30:56;6.93;;;3.50;;
72601;SDS011;60644;55.858;37.390;2023-04-24T10:33:22;12.52;;;4.25;;
72601;SDS011;60644;55.858;37.390;2023-04-24T10:35:48;8.30;;;4.82;;
72601;SDS011;60644;55.858;37.390;2023-04-24T10:38:23;8.15;;;3.80;;
72601;SDS011;60644;55.858;37.390;2023-04-24T10:40:50;7.37;;;3.20;;
72601;SDS011;60644;55.858;37.390;2023-04-24T10:43:16;7.32;;;3.75;;
72601;SDS011;60644;55.858;37.390;2023-04-24T10:45:42;13.88;;;3.55;;
72601;SDS011;60644;55.858;37.390;2023-04-24T10:48:26;6.53;;;3.27;;
72601;SDS011;60644;55.858;37.390;2023-04-24T10:50:52;7.30;;;3.67;;
72601;SDS011;60644;55.858;37.390;2023-04-24T10:53:19;11.02;;;3.75;;
72601;SDS011;60644;55.858;37.390;2023-04-24T10:55:49;7.55;;;3.60;;
72601;SDS011;60644;55.858;37.390;2023-04-24T10:58:16;10.02;;;4.10;;
72601;SDS011;60644;55.858;37.390;2023-04-24T11:00:43;7.80;;;3.63;;
72601;SDS011;60644;55.858;37.390;2023-04-24T11:06:00;9.68;;;4.28;;
72601;SDS011;60644;55.858;37.390;2023-04-24T11:08:28;7.15;;;4.05;;
72601;SDS011;60644;55.858;37.390;2023-04-24T11:13:28;10.20;;;3.77;;
72601;SDS011;60644;55.858;37.390;2023-04-24T11:16:15;8.73;;;4.43;;
72601;SDS011;60644;55.858;37.390;2023-04-24T11:18:50;7.82;;;3.90;;
72601;SDS011;60644;55.858;37.390;2023-04-24T11:21:18;7.22;;;3.85;;
72601;SDS011;60644;55.858;37.390;2023-04-24T11:23:44;10.90;;;4.33;;
72601;SDS011;60644;55.858;37.390;2023-04-24T11:26:17;7.07;;;3.60;;
72601;SDS011;60644;55.858;37.390;2023-04-24T11:28:46;8.10;;;3.63;;
72601;SDS011;60644;55.858;37.390;2023-04-24T11:33:57;6.57;;;3.60;;
72601;SDS011;60644;55.858;37.390;2023-04-24T11:36:31;8.50;;;4.03;;
72601;SDS011;60644;55.858;37.390;2023-04-24T11:38:57;6.80;;;3.67;;
72601;SDS011;60644;55.858;37.390;2023-04-24T11:41:22;7.47;;;3.70;;
72601;SDS011;60644;55.858;37.390;2023-04-24T11:43:48;8.97;;;3.63;;
72601;SDS011;60644;55.858;37.390;2023-04-24T11:46:16;6.80;;;3.75;;
72601;SDS011;60644;55.858;37.390;2023-04-24T11:48:44;8.98;;;3.90;;
72601;SDS011;60644;55.858;37.390;2023-04-24T11:51:12;8.05;;;4.53;;
72601;SDS011;60644;55.858;37.390;2023-04-24T11:53:37;7.50;;;3.57;;
72601;SDS011;60644;55.858;37.390;2023-04-24T11:56:03;7.10;;;3.65;;
72601;SDS011;60644;55.858;37.390;2023-04-24T11:58:34;7.72;;;3.50;;
72601;SDS011;60644;55.858;37.390;2023-04-24T12:01:00;7.07;;;3.57;;
72601;SDS011;60644;55.858;37.390;2023-04-24T12:03:26;7.72;;;3.45;;
72601;SDS011;60644;55.858;37.390;2023-04-24T12:05:52;7.07;;;3.40;;
72601;SDS011;60644;55.858;37.390;2023-04-24T12:08:29;7.13;;;3.22;;
72601;SDS011;60644;55.858;37.390;2023-04-24T12:10:56;8.90;;;3.25;;
72601;SDS011;60644;55.858;37.390;2023-04-24T12:13:22;5.80;;;3.00;;
72601;SDS011;60644;55.858;37.390;2023-04-24T12:15:47;8.85;;;3.50;;
72601;SDS011;60644;55.858;37.390;2023-04-24T12:18:16;7.03;;;3.07;;
72601;SDS011;60644;55.858;37.390;2023-04-24T12:20:44;7.15;;;3.00;;
72601;SDS011;60644;55.858;37.390;2023-04-24T12:23:10;7.18;;;3.08;;
72601;SDS011;60644;55.858;37.390;2023-04-24T12:28:40;5.90;;;2.88;;
72601;SDS011;60644;55.858;37.390;2023-04-24T12:31:06;6.82;;;3.05;;
72601;SDS011;60644;55.858;37.390;2023-04-24T12:33:33;7.93;;;3.40;;
72601;SDS011;60644;55.858;37.390;2023-04-24T12:36:01;8.02;;;3.10;;
72601;SDS011;60644;55.858;37.390;2023-04-24T12:38:28;6.85;;;3.00;;
72601;SDS011;60644;55.858;37.390;2023-04-24T12:41:06;6.85;;;2.97;;
72601;SDS011;60644;55.858;37.390;2023-04-24T12:43:32;7.28;;;3.13;;
72601;SDS011;60644;55.858;37.390;2023-04-24T12:45:58;7.50;;;3.00;;
72601;SDS011;60644;55.858;37.390;2023-04-24T12:48:27;6.82;;;2.80;;
72601;SDS011;60644;55.858;37.390;2023-04-24T12:50:53;8.18;;;3.40;;
72601;SDS011;60644;55.858;37.390;2023-04-24T12:53:19;6.25;;;3.00;;
72601;SDS011;60644;55.858;37.390;2023-04-24T12:55:44;9.87;;;3.40;;
72601;SDS011;60644;55.858;37.390;2023-04-24T12:58:12;8.18;;;3.05;;
72601;SDS011;60644;55.858;37.390;2023-04-24T13:00:38;7.43;;;3.30;;
72601;SDS011;60644;55.858;37.390;2023-04-24T13:03:04;6.38;;;3.15;;
72601;SDS011;60644;55.858;37.390;2023-04-24T13:05:33;8.03;;;3.23;;
72601;SDS011;60644;55.858;37.390;2023-04-24T13:07:59;8.93;;;3.17;;
72601;SDS011;60644;55.858;37.390;2023-04-24T13:10:24;6.03;;;2.93;;
72601;SDS011;60644;55.858;37.390;2023-04-24T13:12:50;6.05;;;3.70;;
72601;SDS011;60644;55.858;37.390;2023-04-24T13:15:16;7.80;;;3.27;;
72601;SDS011;60644;55.858;37.390;2023-04-24T13:17:42;6.10;;;2.92;;
72601;SDS011;60644;55.858;37.390;2023-04-24T13:20:10;6.68;;;2.90;;
72601;SDS011;60644;55.858;37.390;2023-04-24T13:22:36;9.32;;;4.20;;
72601;SDS011;60644;55.858;37.390;2023-04-24T13:25:02;7.30;;;2.90;;
72601;SDS011;60644;55.858;37.390;2023-04-24T13:27:30;9.95;;;3.80;;
72601;SDS011;60644;55.858;37.390;2023-04-24T13:29:56;10.80;;;4.05;;
72601;SDS011;60644;55.858;37.390;2023-04-24T13:32:22;7.63;;;3.03;;
72601;SDS011;60644;55.858;37.390;2023-04-24T13:34:48;6.28;;;2.80;;
72601;SDS011;60644;55.858;37.390;2023-04-24T13:37:14;7.20;;;3.15;;
72601;SDS011;60644;55.858;37.390;2023-04-24T13:39:40;9.60;;;3.57;;
72601;SDS011;60644;55.858;37.390;2023-04-24T13:42:06;9.00;;;4.70;;
72601;SDS011;60644;55.858;37.390;2023-04-24T13:44:32;9.27;;;3.95;;
72601;SDS011;60644;55.858;37.390;2023-04-24T13:46:58;6.97;;;3.30;;
72601;SDS011;60644;55.858;37.390;2023-04-24T13:49:24;9.48;;;2.97;;
72601;SDS011;60644;55.858;37.390;2023-04-24T13:51:51;6.88;;;3.25;;
72601;SDS011;60644;55.858;37.390;2023-04-24T13:54:17;7.63;;;2.80;;
72601;SDS011;60644;55.858;37.390;2023-04-24T13:56:42;6.82;;;2.80;;
72601;SDS011;60644;55.858;37.390;2023-04-24T13:59:12;7.43;;;3.50;;
72601;SDS011;60644;55.858;37.390;2023-04-24T14:01:38;6.90;;;3.00;;
72601;SDS011;60644;55.858;37.390;2023-04-24T14:04:04;8.37;;;3.07;;
72601;SDS011;60644;55.858;37.390;2023-04-24T14:06:29;7.30;;;3.17;;
72601;SDS011;60644;55.858;37.390;2023-04-24T14:08:56;7.65;;;2.95;;
72601;SDS011;60644;55.858;37.390;2023-04-24T14:11:22;6.90;;;3.30;;
72601;SDS011;60644;55.858;37.390;2023-04-24T14:13:48;7.00;;;3.08;;
72601;SDS011;60644;55.858;37.390;2023-04-24T14:16:14;7.50;;;3.20;;
72601;SDS011;60644;55.858;37.390;2023-04-24T14:18:40;7.97;;;3.13;;
72601;SDS011;60644;55.858;37.390;2023-04-24T14:21:05;6.18;;;2.95;;
72601;SDS011;60644;55.858;37.390;2023-04-24T14:23:31;8.43;;;3.33;;
72601;SDS011;60644;55.858;37.390;2023-04-24T14:25:57;6.57;;;3.15;;
72601;SDS011;60644;55.858;37.390;2023-04-24T14:28:23;6.90;;;3.30;;
72601;SDS011;60644;55.858;37.390;2023-04-24T14:30:49;7.22;;;3.17;;
72601;SDS011;60644;55.858;37.390;2023-04-24T14:33:15;7.03;;;2.90;;
72601;SDS011;60644;55.858;37.390;2023-04-24T14:35:41;8.10;;;3.17;;
72601;SDS011;60644;55.858;37.390;2023-04-24T14:38:10;6.38;;;2.95;;
72601;SDS011;60644;55.858;37.390;2023-04-24T14:40:36;7.05;;;3.47;;
72601;SDS011;60644;55.858;37.390;2023-04-24T14:43:02;7.57;;;3.25;;